sensor_id;sensor_type;location;lat;lon;timestamp;P1;durP1;ratioP1;P2;durP2;ratioP2
19798;SDS011;10059;59.850;10.454;2023-02-01T00:02:02;22.33;;;8.40;;
19798;SDS011;10059;59.850;10.454;2023-02-01T00:04:29;22.47;;;9.30;;
19798;SDS011;10059;59.850;10.454;2023-02-01T00:06:56;19.47;;;8.87;;
19798;SDS011;10059;59.850;10.454;2023-02-01T00:09:23;19.47;;;9.30;;
19798;SDS011;10059;59.850;10.454;2023-02-01T00:11:50;18.20;;;8.87;;
19798;SDS011;10059;59.850;10.454;2023-02-01T00:14:18;20.27;;;8.77;;
19798;SDS011;10059;59.850;10.454;2023-02-01T00:16:45;17.17;;;8.53;;
19798;SDS011;10059;59.850;10.454;2023-02-01T00:19:13;17.43;;;8.80;;
19798;SDS011;10059;59.850;10.454;2023-02-01T00:21:41;18.63;;;8.80;;
19798;SDS011;10059;59.850;10.454;2023-02-01T00:24:09;18.03;;;8.37;;
19798;SDS011;10059;59.850;10.454;2023-02-01T00:26:37;20.27;;;8.93;;
19798;SDS011;10059;59.850;10.454;2023-02-01T00:29:05;21.33;;;9.00;;
19798;SDS011;10059;59.850;10.454;2023-02-01T00:31:34;20.57;;;9.23;;
19798;SDS011;10059;59.850;10.454;2023-02-01T00:34:01;20.50;;;8.60;;
19798;SDS011;10059;59.850;10.454;2023-02-01T00:36:28;19.67;;;8.80;;
19798;SDS011;10059;59.850;10.454;2023-02-01T00:38:55;21.67;;;8.60;;
19798;SDS011;10059;59.850;10.454;2023-02-01T00:41:23;25.03;;;8.83;;
19798;SDS011;10059;59.850;10.454;2023-02-01T00:43:50;17.77;;;8.67;;
19798;SDS011;10059;59.850;10.454;2023-02-01T00:46:17;20.20;;;9.37;;
19798;SDS011;10059;59.850;10.454;2023-02-01T00:48:47;17.47;;;8.73;;
19798;SDS011;10059;59.850;10.454;2023-02-01T00:51:15;19.50;;;8.50;;
19798;SDS011;10059;59.850;10.454;2023-02-01T00:53:43;19.43;;;8.80;;
19798;SDS011;10059;59.850;10.454;2023-02-01T00:56:10;20.93;;;8.93;;
19798;SDS011;10059;59.850;10.454;2023-02-01T00:58:38;23.40;;;9.40;;
19798;SDS011;10059;59.850;10.454;2023-02-01T01:01:06;22.27;;;9.07;;
19798;SDS011;10059;59.850;10.454;2023-02-01T01:03:37;20.27;;;9.00;;
19798;SDS011;10059;59.850;10.454;2023-02-01T01:06:08;20.57;;;9.13;;
19798;SDS011;10059;59.850;10.454;2023-02-01T01:08:37;25.13;;;10.07;;
19798;SDS011;10059;59.850;10.454;2023-02-01T01:11:05;25.60;;;10.70;;
19798;SDS011;10059;59.850;10.454;2023-02-01T01:13:33;23.17;;;9.37;;
19798;SDS011;10059;59.850;10.454;2023-02-01T01:16:01;22.47;;;10.20;;
19798;SDS011;10059;59.850;10.454;2023-02-01T01:18:28;21.27;;;10.07;;
19798;SDS011;10059;59.850;10.454;2023-02-01T01:20:56;22.83;;;9.70;;
19798;SDS011;10059;59.850;10.454;2023-02-01T01:23:25;21.93;;;9.93;;
19798;SDS011;10059;59.850;10.454;2023-02-01T01:25:53;23.40;;;10.70;;
19798;SDS011;10059;59.850;10.454;2023-02-01T01:28:20;26.93;;;10.20;;
19798;SDS011;10059;59.850;10.454;2023-02-01T01:30:46;27.00;;;10.43;;
19798;SDS011;10059;59.850;10.454;2023-02-01T01:33:14;23.73;;;10.47;;
19798;SDS011;10059;59.850;10.454;2023-02-01T01:35:41;32.43;;;13.47;;
19798;SDS011;10059;59.850;10.454;2023-02-01T01:38:08;33.10;;;12.93;;
19798;SDS011;10059;59.850;10.454;2023-02-01T01:40:37;29.70;;;12.73;;
19798;SDS011;10059;59.850;10.454;2023-02-01T01:43:09;27.43;;;12.87;;
19798;SDS011;10059;59.850;10.454;2023-02-01T01:45:39;31.93;;;13.67;;
19798;SDS011;10059;59.850;10.454;2023-02-01T01:48:07;28.00;;;12.00;;
19798;SDS011;10059;59.850;10.454;2023-02-01T01:50:42;28.83;;;11.90;;
19798;SDS011;10059;59.850;10.454;2023-02-01T01:53:13;28.70;;;12.20;;
19798;SDS011;10059;59.850;10.454;2023-02-01T01:55:45;24.47;;;11.33;;
19798;SDS011;10059;59.850;10.454;2023-02-01T01:58:14;23.83;;;10.90;;
19798;SDS011;10059;59.850;10.454;2023-02-01T02:00:43;25.20;;;11.30;;
19798;SDS011;10059;59.850;10.454;2023-02-01T02:03:12;26.20;;;11.30;;
19798;SDS011;10059;59.850;10.454;2023-02-01T02:05:43;20.40;;;8.60;;
19798;SDS011;10059;59.850;10.454;2023-02-01T02:08:11;20.40;;;9.40;;
19798;SDS011;10059;59.850;10.454;2023-02-01T02:10:39;20.90;;;9.50;;
19798;SDS011;10059;59.850;10.454;2023-02-01T02:13:24;20.70;;;10.00;;
19798;SDS011;10059;59.850;10.454;2023-02-01T02:15:55;23.97;;;10.70;;
19798;SDS011;10059;59.850;10.454;2023-02-01T02:18:33;23.73;;;10.40;;
19798;SDS011;10059;59.850;10.454;2023-02-01T02:21:11;24.23;;;10.33;;
19798;SDS011;10059;59.850;10.454;2023-02-01T02:23:55;22.67;;;10.07;;
19798;SDS011;10059;59.850;10.454;2023-02-01T02:26:57;23.13;;;9.73;;
19798;SDS011;10059;59.850;10.454;2023-02-01T02:30:02;24.33;;;9.83;;
19798;SDS011;10059;59.850;10.454;2023-02-01T02:33:01;22.73;;;10.13;;
19798;SDS011;10059;59.850;10.454;2023-02-01T02:36:04;25.37;;;9.87;;
19798;SDS011;10059;59.850;10.454;2023-02-01T02:38:39;25.23;;;10.03;;
19798;SDS011;10059;59.850;10.454;2023-02-01T02:41:13;28.67;;;10.83;;
19798;SDS011;10059;59.850;10.454;2023-02-01T02:43:59;26.43;;;10.90;;
19798;SDS011;10059;59.850;10.454;2023-02-01T02:46:49;23.00;;;10.27;;
19798;SDS011;10059;59.850;10.454;2023-02-01T02:49:36;22.67;;;10.10;;
19798;SDS011;10059;59.850;10.454;2023-02-01T02:52:11;29.20;;;10.77;;
19798;SDS011;10059;59.850;10.454;2023-02-01T02:55:13;24.23;;;10.27;;
19798;SDS011;10059;59.850;10.454;2023-02-01T02:57:41;25.53;;;10.70;;
19798;SDS011;10059;59.850;10.454;2023-02-01T03:00:28;31.17;;;11.07;;
19798;SDS011;10059;59.850;10.454;2023-02-01T03:03:15;25.87;;;11.20;;
19798;SDS011;10059;59.850;10.454;2023-02-01T03:05:59;25.20;;;10.17;;
19798;SDS011;10059;59.850;10.454;2023-02-01T03:08:28;25.83;;;10.63;;
19798;SDS011;10059;59.850;10.454;2023-02-01T03:10:56;25.47;;;10.00;;
19798;SDS011;10059;59.850;10.454;2023-02-01T03:13:28;24.63;;;11.57;;
19798;SDS011;10059;59.850;10.454;2023-02-01T03:16:01;22.17;;;9.37;;
19798;SDS011;10059;59.850;10.454;2023-02-01T03:18:33;26.03;;;10.40;;
19798;SDS011;10059;59.850;10.454;2023-02-01T03:21:06;24.93;;;10.63;;
19798;SDS011;10059;59.850;10.454;2023-02-01T03:23:37;26.20;;;10.37;;
19798;SDS011;10059;59.850;10.454;2023-02-01T03:26:04;24.43;;;9.60;;
19798;SDS011;10059;59.850;10.454;2023-02-01T03:28:34;24.43;;;10.33;;
19798;SDS011;10059;59.850;10.454;2023-02-01T03:31:05;27.43;;;10.57;;
19798;SDS011;10059;59.850;10.454;2023-02-01T03:33:32;27.13;;;11.07;;
19798;SDS011;10059;59.850;10.454;2023-02-01T03:36:02;25.57;;;10.60;;
19798;SDS011;10059;59.850;10.454;2023-02-01T03:38:38;24.60;;;10.60;;
19798;SDS011;10059;59.850;10.454;2023-02-01T03:41:11;23.70;;;9.97;;
19798;SDS011;10059;59.850;10.454;2023-02-01T03:43:46;24.63;;;10.07;;
19798;SDS011;10059;59.850;10.454;2023-02-01T03:46:19;25.30;;;10.00;;
19798;SDS011;10059;59.850;10.454;2023-02-01T03:48:49;21.87;;;9.50;;
19798;SDS011;10059;59.850;10.454;2023-02-01T03:51:18;23.17;;;9.30;;
19798;SDS011;10059;59.850;10.454;2023-02-01T03:53:48;22.00;;;9.23;;
19798;SDS011;10059;59.850;10.454;2023-02-01T03:56:17;25.10;;;9.80;;
19798;SDS011;10059;59.850;10.454;2023-02-01T03:58:47;29.60;;;10.93;;
19798;SDS011;10059;59.850;10.454;2023-02-01T04:01:24;27.87;;;10.77;;
19798;SDS011;10059;59.850;10.454;2023-02-01T04:03:51;30.43;;;11.70;;
19798;SDS011;10059;59.850;10.454;2023-02-01T04:06:18;30.77;;;11.63;;
19798;SDS011;10059;59.850;10.454;2023-02-01T04:08:45;25.97;;;11.17;;
19798;SDS011;10059;59.850;10.454;2023-02-01T04:11:13;29.67;;;12.00;;
19798;SDS011;10059;59.850;10.454;2023-02-01T04:13:40;29.40;;;11.83;;
19798;SDS011;10059;59.850;10.454;2023-02-01T04:16:06;32.07;;;12.43;;
19798;SDS011;10059;59.850;10.454;2023-02-01T04:18:33;33.13;;;13.03;;
19798;SDS011;10059;59.850;10.454;2023-02-01T04:21:00;33.07;;;13.03;;
19798;SDS011;10059;59.850;10.454;2023-02-01T04:23:27;39.90;;;13.60;;
19798;SDS011;10059;59.850;10.454;2023-02-01T04:25:58;36.40;;;13.03;;
19798;SDS011;10059;59.850;10.454;2023-02-01T04:28:26;33.27;;;12.73;;
19798;SDS011;10059;59.850;10.454;2023-02-01T04:30:53;37.83;;;13.43;;
19798;SDS011;10059;59.850;10.454;2023-02-01T04:33:20;36.07;;;13.40;;
19798;SDS011;10059;59.850;10.454;2023-02-01T04:35:47;37.50;;;13.47;;
19798;SDS011;10059;59.850;10.454;2023-02-01T04:38:14;35.27;;;13.03;;
19798;SDS011;10059;59.850;10.454;2023-02-01T04:40:41;41.53;;;13.90;;
19798;SDS011;10059;59.850;10.454;2023-02-01T04:43:08;33.37;;;12.63;;
19798;SDS011;10059;59.850;10.454;2023-02-01T04:45:36;40.47;;;13.43;;
19798;SDS011;10059;59.850;10.454;2023-02-01T04:48:03;35.37;;;13.10;;
19798;SDS011;10059;59.850;10.454;2023-02-01T04:50:30;37.50;;;12.87;;
19798;SDS011;10059;59.850;10.454;2023-02-01T04:52:57;36.90;;;13.57;;
19798;SDS011;10059;59.850;10.454;2023-02-01T04:55:24;34.67;;;13.10;;
19798;SDS011;10059;59.850;10.454;2023-02-01T04:57:51;34.90;;;12.50;;
19798;SDS011;10059;59.850;10.454;2023-02-01T05:00:18;37.03;;;13.10;;
19798;SDS011;10059;59.850;10.454;2023-02-01T05:02:46;44.13;;;14.70;;
19798;SDS011;10059;59.850;10.454;2023-02-01T05:05:14;40.40;;;14.20;;
19798;SDS011;10059;59.850;10.454;2023-02-01T05:07:41;40.57;;;13.67;;
19798;SDS011;10059;59.850;10.454;2023-02-01T05:10:08;38.27;;;13.87;;
19798;SDS011;10059;59.850;10.454;2023-02-01T05:12:35;41.87;;;14.93;;
19798;SDS011;10059;59.850;10.454;2023-02-01T05:15:19;34.53;;;13.10;;
19798;SDS011;10059;59.850;10.454;2023-02-01T05:17:48;34.13;;;13.50;;
19798;SDS011;10059;59.850;10.454;2023-02-01T05:20:14;37.07;;;13.27;;
19798;SDS011;10059;59.850;10.454;2023-02-01T05:22:41;40.23;;;12.97;;
19798;SDS011;10059;59.850;10.454;2023-02-01T05:25:08;33.77;;;13.03;;
19798;SDS011;10059;59.850;10.454;2023-02-01T05:27:35;35.13;;;12.97;;
19798;SDS011;10059;59.850;10.454;2023-02-01T05:30:03;39.77;;;13.27;;
19798;SDS011;10059;59.850;10.454;2023-02-01T05:32:30;42.90;;;14.50;;
19798;SDS011;10059;59.850;10.454;2023-02-01T05:34:58;40.13;;;14.87;;
19798;SDS011;10059;59.850;10.454;2023-02-01T05:37:25;40.10;;;14.07;;
19798;SDS011;10059;59.850;10.454;2023-02-01T05:39:52;34.80;;;13.27;;
19798;SDS011;10059;59.850;10.454;2023-02-01T05:42:19;34.30;;;13.40;;
19798;SDS011;10059;59.850;10.454;2023-02-01T05:44:46;39.40;;;18.10;;
19798;SDS011;10059;59.850;10.454;2023-02-01T05:47:13;34.33;;;13.90;;
19798;SDS011;10059;59.850;10.454;2023-02-01T05:49:39;32.90;;;12.33;;
19798;SDS011;10059;59.850;10.454;2023-02-01T05:52:08;31.23;;;12.00;;
19798;SDS011;10059;59.850;10.454;2023-02-01T05:54:34;25.33;;;10.40;;
19798;SDS011;10059;59.850;10.454;2023-02-01T05:57:01;24.20;;;10.07;;
19798;SDS011;10059;59.850;10.454;2023-02-01T05:59:28;22.70;;;10.13;;
19798;SDS011;10059;59.850;10.454;2023-02-01T06:01:55;21.57;;;9.60;;
19798;SDS011;10059;59.850;10.454;2023-02-01T06:04:22;21.87;;;9.20;;
19798;SDS011;10059;59.850;10.454;2023-02-01T06:06:49;23.47;;;9.43;;
19798;SDS011;10059;59.850;10.454;2023-02-01T06:09:17;23.77;;;9.80;;
19798;SDS011;10059;59.850;10.454;2023-02-01T06:11:44;22.37;;;9.27;;
19798;SDS011;10059;59.850;10.454;2023-02-01T06:14:11;19.13;;;9.20;;
19798;SDS011;10059;59.850;10.454;2023-02-01T06:16:38;20.00;;;8.63;;
19798;SDS011;10059;59.850;10.454;2023-02-01T06:19:04;19.17;;;8.77;;
19798;SDS011;10059;59.850;10.454;2023-02-01T06:21:31;20.90;;;10.83;;
19798;SDS011;10059;59.850;10.454;2023-02-01T06:23:58;19.13;;;9.67;;
19798;SDS011;10059;59.850;10.454;2023-02-01T06:26:26;21.20;;;8.93;;
19798;SDS011;10059;59.850;10.454;2023-02-01T06:28:54;20.53;;;9.27;;
19798;SDS011;10059;59.850;10.454;2023-02-01T06:31:21;17.17;;;8.87;;
19798;SDS011;10059;59.850;10.454;2023-02-01T06:33:50;20.47;;;9.63;;
19798;SDS011;10059;59.850;10.454;2023-02-01T06:36:18;22.23;;;9.63;;
19798;SDS011;10059;59.850;10.454;2023-02-01T06:38:46;20.80;;;9.37;;
19798;SDS011;10059;59.850;10.454;2023-02-01T06:41:14;19.43;;;9.43;;
19798;SDS011;10059;59.850;10.454;2023-02-01T06:43:42;22.27;;;9.87;;
19798;SDS011;10059;59.850;10.454;2023-02-01T06:46:11;23.87;;;9.27;;
19798;SDS011;10059;59.850;10.454;2023-02-01T06:48:39;20.90;;;9.83;;
19798;SDS011;10059;59.850;10.454;2023-02-01T06:51:06;20.85;;;11.95;;
19798;SDS011;10059;59.850;10.454;2023-02-01T06:53:42;19.77;;;10.03;;
19798;SDS011;10059;59.850;10.454;2023-02-01T06:56:09;21.80;;;9.77;;
19798;SDS011;10059;59.850;10.454;2023-02-01T06:58:35;17.53;;;9.10;;
19798;SDS011;10059;59.850;10.454;2023-02-01T07:01:05;18.90;;;8.83;;
19798;SDS011;10059;59.850;10.454;2023-02-01T07:03:33;16.37;;;8.13;;
19798;SDS011;10059;59.850;10.454;2023-02-01T07:06:00;19.97;;;8.97;;
19798;SDS011;10059;59.850;10.454;2023-02-01T07:08:27;19.70;;;8.23;;
19798;SDS011;10059;59.850;10.454;2023-02-01T07:10:55;17.17;;;8.50;;
19798;SDS011;10059;59.850;10.454;2023-02-01T07:13:22;17.33;;;8.23;;
19798;SDS011;10059;59.850;10.454;2023-02-01T07:15:48;16.03;;;8.30;;
19798;SDS011;10059;59.850;10.454;2023-02-01T07:18:17;16.57;;;7.93;;
19798;SDS011;10059;59.850;10.454;2023-02-01T07:20:46;15.43;;;7.77;;
19798;SDS011;10059;59.850;10.454;2023-02-01T07:23:16;14.80;;;7.30;;
19798;SDS011;10059;59.850;10.454;2023-02-01T07:25:43;16.07;;;7.77;;
19798;SDS011;10059;59.850;10.454;2023-02-01T07:28:09;16.47;;;7.97;;
19798;SDS011;10059;59.850;10.454;2023-02-01T07:30:36;17.83;;;9.40;;
19798;SDS011;10059;59.850;10.454;2023-02-01T07:33:03;20.63;;;9.93;;
19798;SDS011;10059;59.850;10.454;2023-02-01T07:35:31;21.23;;;9.83;;
19798;SDS011;10059;59.850;10.454;2023-02-01T07:37:58;20.97;;;10.17;;
19798;SDS011;10059;59.850;10.454;2023-02-01T07:40:25;19.57;;;8.97;;
19798;SDS011;10059;59.850;10.454;2023-02-01T07:42:53;16.60;;;8.40;;
19798;SDS011;10059;59.850;10.454;2023-02-01T07:45:20;17.03;;;8.70;;
19798;SDS011;10059;59.850;10.454;2023-02-01T07:47:47;16.53;;;8.43;;
19798;SDS011;10059;59.850;10.454;2023-02-01T07:50:14;18.27;;;9.43;;
19798;SDS011;10059;59.850;10.454;2023-02-01T07:52:43;19.87;;;9.13;;
19798;SDS011;10059;59.850;10.454;2023-02-01T07:55:09;15.47;;;8.30;;
19798;SDS011;10059;59.850;10.454;2023-02-01T07:57:36;15.67;;;7.50;;
19798;SDS011;10059;59.850;10.454;2023-02-01T08:00:03;18.43;;;8.40;;
19798;SDS011;10059;59.850;10.454;2023-02-01T08:02:48;18.63;;;7.70;;
19798;SDS011;10059;59.850;10.454;2023-02-01T08:05:15;16.33;;;7.77;;
19798;SDS011;10059;59.850;10.454;2023-02-01T08:07:43;19.03;;;8.60;;
19798;SDS011;10059;59.850;10.454;2023-02-01T08:10:14;15.97;;;7.30;;
19798;SDS011;10059;59.850;10.454;2023-02-01T08:12:41;16.33;;;7.90;;
19798;SDS011;10059;59.850;10.454;2023-02-01T08:15:12;15.30;;;7.07;;
19798;SDS011;10059;59.850;10.454;2023-02-01T08:17:40;12.70;;;6.80;;
19798;SDS011;10059;59.850;10.454;2023-02-01T08:20:07;12.30;;;6.70;;
19798;SDS011;10059;59.850;10.454;2023-02-01T08:22:35;13.60;;;6.33;;
19798;SDS011;10059;59.850;10.454;2023-02-01T08:25:04;13.37;;;7.00;;
19798;SDS011;10059;59.850;10.454;2023-02-01T08:27:32;14.00;;;6.63;;
19798;SDS011;10059;59.850;10.454;2023-02-01T08:29:58;12.53;;;6.17;;
19798;SDS011;10059;59.850;10.454;2023-02-01T08:32:25;11.63;;;6.57;;
19798;SDS011;10059;59.850;10.454;2023-02-01T08:34:52;15.60;;;6.47;;
19798;SDS011;10059;59.850;10.454;2023-02-01T08:37:19;12.83;;;5.93;;
19798;SDS011;10059;59.850;10.454;2023-02-01T08:39:47;12.50;;;6.00;;
19798;SDS011;10059;59.850;10.454;2023-02-01T08:42:17;12.10;;;6.00;;
19798;SDS011;10059;59.850;10.454;2023-02-01T08:45:01;11.50;;;5.50;;
19798;SDS011;10059;59.850;10.454;2023-02-01T08:47:30;14.43;;;6.57;;
19798;SDS011;10059;59.850;10.454;2023-02-01T08:49:57;12.37;;;6.43;;
19798;SDS011;10059;59.850;10.454;2023-02-01T08:52:24;11.70;;;6.17;;
19798;SDS011;10059;59.850;10.454;2023-02-01T08:54:51;16.20;;;6.53;;
19798;SDS011;10059;59.850;10.454;2023-02-01T08:57:19;14.50;;;6.40;;
19798;SDS011;10059;59.850;10.454;2023-02-01T08:59:46;11.73;;;6.07;;
19798;SDS011;10059;59.850;10.454;2023-02-01T09:02:13;11.37;;;6.13;;
19798;SDS011;10059;59.850;10.454;2023-02-01T09:04:40;11.63;;;5.60;;
19798;SDS011;10059;59.850;10.454;2023-02-01T09:07:07;11.03;;;5.53;;
19798;SDS011;10059;59.850;10.454;2023-02-01T09:09:33;12.93;;;5.13;;
19798;SDS011;10059;59.850;10.454;2023-02-01T09:12:01;10.37;;;5.53;;
19798;SDS011;10059;59.850;10.454;2023-02-01T09:14:29;10.93;;;5.43;;
19798;SDS011;10059;59.850;10.454;2023-02-01T09:16:56;10.10;;;5.30;;
19798;SDS011;10059;59.850;10.454;2023-02-01T09:19:23;13.77;;;5.10;;
19798;SDS011;10059;59.850;10.454;2023-02-01T09:21:50;9.90;;;4.60;;
19798;SDS011;10059;59.850;10.454;2023-02-01T09:24:17;10.93;;;5.20;;
19798;SDS011;10059;59.850;10.454;2023-02-01T09:26:44;9.97;;;5.47;;
19798;SDS011;10059;59.850;10.454;2023-02-01T09:29:10;14.83;;;6.90;;
19798;SDS011;10059;59.850;10.454;2023-02-01T09:31:39;9.33;;;5.17;;
19798;SDS011;10059;59.850;10.454;2023-02-01T09:34:07;10.23;;;5.33;;
19798;SDS011;10059;59.850;10.454;2023-02-01T09:36:34;9.73;;;5.13;;
19798;SDS011;10059;59.850;10.454;2023-02-01T09:39:03;10.30;;;5.23;;
19798;SDS011;10059;59.850;10.454;2023-02-01T09:41:32;10.57;;;4.90;;
19798;SDS011;10059;59.850;10.454;2023-02-01T09:44:12;7.93;;;4.03;;
19798;SDS011;10059;59.850;10.454;2023-02-01T09:46:48;7.33;;;3.50;;
19798;SDS011;10059;59.850;10.454;2023-02-01T09:49:18;7.27;;;3.67;;
19798;SDS011;10059;59.850;10.454;2023-02-01T09:51:48;6.37;;;3.03;;
19798;SDS011;10059;59.850;10.454;2023-02-01T09:54:17;5.37;;;2.73;;
19798;SDS011;10059;59.850;10.454;2023-02-01T09:56:47;5.83;;;3.07;;
19798;SDS011;10059;59.850;10.454;2023-02-01T09:59:19;6.50;;;2.97;;
19798;SDS011;10059;59.850;10.454;2023-02-01T10:01:58;5.13;;;2.90;;
19798;SDS011;10059;59.850;10.454;2023-02-01T10:04:25;4.40;;;2.33;;
19798;SDS011;10059;59.850;10.454;2023-02-01T10:06:56;5.10;;;2.77;;
19798;SDS011;10059;59.850;10.454;2023-02-01T10:09:39;4.10;;;2.53;;
19798;SDS011;10059;59.850;10.454;2023-02-01T10:12:29;6.33;;;2.60;;
19798;SDS011;10059;59.850;10.454;2023-02-01T10:15:16;6.87;;;2.67;;
19798;SDS011;10059;59.850;10.454;2023-02-01T10:17:56;3.67;;;2.30;;
19798;SDS011;10059;59.850;10.454;2023-02-01T10:20:37;6.70;;;2.73;;
19798;SDS011;10059;59.850;10.454;2023-02-01T10:23:24;4.37;;;2.60;;
19798;SDS011;10059;59.850;10.454;2023-02-01T10:26:12;4.47;;;2.50;;
19798;SDS011;10059;59.850;10.454;2023-02-01T10:28:44;4.30;;;2.47;;
19798;SDS011;10059;59.850;10.454;2023-02-01T10:31:14;4.33;;;3.00;;
19798;SDS011;10059;59.850;10.454;2023-02-01T10:33:44;5.80;;;3.03;;
19798;SDS011;10059;59.850;10.454;2023-02-01T10:36:13;5.93;;;3.20;;
19798;SDS011;10059;59.850;10.454;2023-02-01T10:38:45;6.70;;;3.17;;
19798;SDS011;10059;59.850;10.454;2023-02-01T10:41:13;5.63;;;3.00;;
19798;SDS011;10059;59.850;10.454;2023-02-01T10:43:42;5.43;;;3.00;;
19798;SDS011;10059;59.850;10.454;2023-02-01T10:46:12;6.50;;;3.00;;
19798;SDS011;10059;59.850;10.454;2023-02-01T10:48:38;4.77;;;2.47;;
19798;SDS011;10059;59.850;10.454;2023-02-01T10:51:10;4.53;;;2.53;;
19798;SDS011;10059;59.850;10.454;2023-02-01T10:53:42;4.07;;;2.50;;
19798;SDS011;10059;59.850;10.454;2023-02-01T10:56:14;3.80;;;2.20;;
19798;SDS011;10059;59.850;10.454;2023-02-01T10:58:47;5.40;;;2.40;;
19798;SDS011;10059;59.850;10.454;2023-02-01T11:01:16;3.37;;;2.30;;
19798;SDS011;10059;59.850;10.454;2023-02-01T11:03:45;4.17;;;2.53;;
19798;SDS011;10059;59.850;10.454;2023-02-01T11:06:24;4.97;;;2.80;;
19798;SDS011;10059;59.850;10.454;2023-02-01T11:08:54;4.33;;;2.40;;
19798;SDS011;10059;59.850;10.454;2023-02-01T11:11:23;4.30;;;2.53;;
19798;SDS011;10059;59.850;10.454;2023-02-01T11:13:51;6.07;;;2.83;;
19798;SDS011;10059;59.850;10.454;2023-02-01T11:16:20;4.30;;;2.50;;
19798;SDS011;10059;59.850;10.454;2023-02-01T11:18:47;3.87;;;2.30;;
19798;SDS011;10059;59.850;10.454;2023-02-01T11:21:20;4.10;;;2.27;;
19798;SDS011;10059;59.850;10.454;2023-02-01T11:23:48;4.10;;;2.33;;
19798;SDS011;10059;59.850;10.454;2023-02-01T11:26:19;3.57;;;2.33;;
19798;SDS011;10059;59.850;10.454;2023-02-01T11:28:50;5.67;;;3.30;;
19798;SDS011;10059;59.850;10.454;2023-02-01T11:31:20;9.77;;;4.23;;
19798;SDS011;10059;59.850;10.454;2023-02-01T11:33:49;5.13;;;2.70;;
19798;SDS011;10059;59.850;10.454;2023-02-01T11:36:20;2.87;;;2.13;;
19798;SDS011;10059;59.850;10.454;2023-02-01T11:38:53;7.90;;;3.70;;
19798;SDS011;10059;59.850;10.454;2023-02-01T11:41:33;32.00;;;13.07;;
19798;SDS011;10059;59.850;10.454;2023-02-01T11:47:02;13.70;;;6.83;;
19798;SDS011;10059;59.850;10.454;2023-02-01T11:49:45;7.67;;;4.63;;
19798;SDS011;10059;59.850;10.454;2023-02-01T11:52:14;7.40;;;4.00;;
19798;SDS011;10059;59.850;10.454;2023-02-01T11:54:52;5.37;;;3.20;;
19798;SDS011;10059;59.850;10.454;2023-02-01T11:57:41;3.70;;;2.50;;
19798;SDS011;10059;59.850;10.454;2023-02-01T12:00:30;5.87;;;2.53;;
19798;SDS011;10059;59.850;10.454;2023-02-01T12:03:22;3.87;;;2.93;;
19798;SDS011;10059;59.850;10.454;2023-02-01T12:06:08;5.17;;;2.50;;
19798;SDS011;10059;59.850;10.454;2023-02-01T12:08:51;3.83;;;2.30;;
19798;SDS011;10059;59.850;10.454;2023-02-01T12:11:41;3.97;;;2.67;;
19798;SDS011;10059;59.850;10.454;2023-02-01T12:14:20;4.53;;;2.40;;
19798;SDS011;10059;59.850;10.454;2023-02-01T12:17:03;5.80;;;2.50;;
19798;SDS011;10059;59.850;10.454;2023-02-01T12:19:47;3.87;;;2.40;;
19798;SDS011;10059;59.850;10.454;2023-02-01T12:22:30;6.00;;;2.60;;
19798;SDS011;10059;59.850;10.454;2023-02-01T12:28:07;4.20;;;2.30;;
19798;SDS011;10059;59.850;10.454;2023-02-01T12:30:57;5.70;;;2.50;;
19798;SDS011;10059;59.850;10.454;2023-02-01T12:33:39;3.63;;;2.10;;
19798;SDS011;10059;59.850;10.454;2023-02-01T12:36:18;4.03;;;2.20;;
19798;SDS011;10059;59.850;10.454;2023-02-01T12:38:55;3.57;;;2.10;;
19798;SDS011;10059;59.850;10.454;2023-02-01T12:41:33;3.70;;;2.20;;
19798;SDS011;10059;59.850;10.454;2023-02-01T12:44:17;3.20;;;2.10;;
19798;SDS011;10059;59.850;10.454;2023-02-01T12:47:00;3.73;;;2.60;;
19798;SDS011;10059;59.850;10.454;2023-02-01T12:49:34;3.93;;;2.47;;
19798;SDS011;10059;59.850;10.454;2023-02-01T12:52:10;3.30;;;2.20;;
19798;SDS011;10059;59.850;10.454;2023-02-01T12:54:41;3.07;;;2.00;;
19798;SDS011;10059;59.850;10.454;2023-02-01T12:57:13;3.97;;;2.30;;
19798;SDS011;10059;59.850;10.454;2023-02-01T12:59:47;3.43;;;1.80;;
19798;SDS011;10059;59.850;10.454;2023-02-01T13:02:19;2.80;;;1.80;;
19798;SDS011;10059;59.850;10.454;2023-02-01T13:04:54;2.77;;;1.90;;
19798;SDS011;10059;59.850;10.454;2023-02-01T13:07:28;3.27;;;1.90;;
19798;SDS011;10059;59.850;10.454;2023-02-01T13:09:59;2.77;;;2.00;;
19798;SDS011;10059;59.850;10.454;2023-02-01T13:12:32;2.70;;;1.70;;
19798;SDS011;10059;59.850;10.454;2023-02-01T13:15:09;3.30;;;2.10;;
19798;SDS011;10059;59.850;10.454;2023-02-01T13:17:42;4.17;;;1.87;;
19798;SDS011;10059;59.850;10.454;2023-02-01T13:20:15;2.87;;;1.70;;
19798;SDS011;10059;59.850;10.454;2023-02-01T13:22:47;4.93;;;2.17;;
19798;SDS011;10059;59.850;10.454;2023-02-01T13:25:21;2.97;;;1.70;;
19798;SDS011;10059;59.850;10.454;2023-02-01T13:28:00;4.53;;;2.30;;
19798;SDS011;10059;59.850;10.454;2023-02-01T13:30:34;3.90;;;1.90;;
19798;SDS011;10059;59.850;10.454;2023-02-01T13:33:13;4.40;;;2.10;;
19798;SDS011;10059;59.850;10.454;2023-02-01T13:35:55;2.93;;;1.70;;
19798;SDS011;10059;59.850;10.454;2023-02-01T13:39:00;3.00;;;1.47;;
19798;SDS011;10059;59.850;10.454;2023-02-01T13:41:51;5.20;;;3.10;;
19798;SDS011;10059;59.850;10.454;2023-02-01T13:44:22;5.13;;;2.93;;
19798;SDS011;10059;59.850;10.454;2023-02-01T13:46:56;4.50;;;2.90;;
19798;SDS011;10059;59.850;10.454;2023-02-01T13:49:26;3.83;;;2.20;;
19798;SDS011;10059;59.850;10.454;2023-02-01T13:51:57;5.27;;;3.43;;
19798;SDS011;10059;59.850;10.454;2023-02-01T13:54:26;9.13;;;5.03;;
19798;SDS011;10059;59.850;10.454;2023-02-01T13:56:56;5.30;;;2.77;;
19798;SDS011;10059;59.850;10.454;2023-02-01T13:59:48;3.90;;;2.33;;
19798;SDS011;10059;59.850;10.454;2023-02-01T14:08:36;4.87;;;2.50;;
19798;SDS011;10059;59.850;10.454;2023-02-01T14:14:06;3.20;;;2.20;;
19798;SDS011;10059;59.850;10.454;2023-02-01T14:23:29;2.10;;;1.50;;
19798;SDS011;10059;59.850;10.454;2023-02-01T14:26:07;3.73;;;2.00;;
19798;SDS011;10059;59.850;10.454;2023-02-01T14:28:57;2.63;;;1.73;;
19798;SDS011;10059;59.850;10.454;2023-02-01T14:31:31;3.60;;;2.00;;
19798;SDS011;10059;59.850;10.454;2023-02-01T14:34:10;6.17;;;2.87;;
19798;SDS011;10059;59.850;10.454;2023-02-01T14:36:43;6.13;;;2.83;;
19798;SDS011;10059;59.850;10.454;2023-02-01T14:39:22;6.73;;;2.93;;
19798;SDS011;10059;59.850;10.454;2023-02-01T14:41:56;6.73;;;3.30;;
19798;SDS011;10059;59.850;10.454;2023-02-01T14:44:28;6.53;;;3.53;;
19798;SDS011;10059;59.850;10.454;2023-02-01T14:47:07;3.90;;;2.40;;
19798;SDS011;10059;59.850;10.454;2023-02-01T14:49:49;4.57;;;2.57;;
19798;SDS011;10059;59.850;10.454;2023-02-01T14:52:23;3.78;;;2.53;;
19798;SDS011;10059;59.850;10.454;2023-02-01T14:55:00;4.23;;;2.20;;
19798;SDS011;10059;59.850;10.454;2023-02-01T14:57:31;4.73;;;2.63;;
19798;SDS011;10059;59.850;10.454;2023-02-01T15:00:07;3.80;;;2.47;;
19798;SDS011;10059;59.850;10.454;2023-02-01T15:02:43;3.63;;;2.40;;
19798;SDS011;10059;59.850;10.454;2023-02-01T15:07:58;4.40;;;2.87;;
19798;SDS011;10059;59.850;10.454;2023-02-01T15:10:33;4.80;;;2.80;;
19798;SDS011;10059;59.850;10.454;2023-02-01T15:13:12;5.47;;;2.90;;